D/T METAR WX W/DIR W/SPE G/SPE TEMP DEWP
23/05/19 12:50 EGOM 231150Z 25016KT CAVOK 15/05 Q1013 BLU WSW (250°) 18.4mph 15°C 5°C
23/05/19 11:50 EGOM 231050Z 26016KT CAVOK 13/04 Q1013 BLU W (260°) 18.4mph 13°C 4°C
23/05/19 10:50 EGOM 230950Z 26016KT 9999 FEW023 BKN220 12/05 Q1014 BLU W (260°) 18.4mph 12°C 5°C
23/05/19 09:50 EGOM 230850Z 24017KT CAVOK 11/04 Q1014 BLU WSW (240°) 19.6mph 11°C 4°C
23/05/19 08:50 EGOM 230750Z 25012KT CAVOK 09/05 Q1014 BLU WSW (250°) 13.8mph 9°C 5°C
23/05/19 07:50 EGOM 230650Z AUTO 26013KT 9999 SCT230/// 07/05 Q1014 W (260°) 15.0mph 7°C 5°C
23/05/19 06:50 EGOM 230550Z AUTO 26012KT 9000 BR BKN001/// 06/06 Q1014 RERA BR W (260°) 13.8mph 6°C 6°C
23/05/19 05:50 EGOM 230450Z AUTO 25010KT 0150 -DZ SCT001/// 04/04 Q1014 -DZ WSW (250°) 11.5mph 4°C 4°C
23/05/19 04:50 EGOM 230350Z AUTO 26011KT 9999 NCD 03/03 Q1014 W (260°) 12.7mph 3°C 3°C
23/05/19 03:50 EGOM 230250Z AUTO 26011KT 9999 FEW001/// 03/03 Q1014 W (260°) 12.7mph 3°C 3°C
23/05/19 02:50 EGOM 230150Z AUTO 26012KT 9999 NCD 04/04 Q1014 W (260°) 13.8mph 4°C 4°C
23/05/19 01:50 EGOM 230050Z AUTO 26013KT 9999 NCD 04/03 Q1014 W (260°) 15.0mph 4°C 3°C
23/05/19 00:50 EGOM 222350Z AUTO 26010KT 9999 NCD 05/04 Q1015 W (260°) 11.5mph 5°C 4°C
22/05/19 23:50 EGOM 222250Z AUTO 25012KT 9999 NCD 06/05 Q1015 WSW (250°) 13.8mph 6°C 5°C
22/05/19 22:50 EGOM 222150Z AUTO 25010KT 9999 NCD 07/05 Q1015 WSW (250°) 11.5mph 7°C 5°C
22/05/19 21:50 EGOM 222050Z AUTO 25012KT 9999 NCD 08/05 Q1015 WSW (250°) 13.8mph 8°C 5°C
22/05/19 20:50 EGOM 221950Z AUTO 25015KT 9999 NCD 09/05 Q1015 WSW (250°) 17.3mph 9°C 5°C
22/05/19 19:50 EGOM 221850Z AUTO 24016KT 9999 NCD 11/04 Q1015 WSW (240°) 18.4mph 11°C 4°C
22/05/19 18:50 EGOM 221750Z AUTO 24016KT 9999 FEW050/// 13/04 Q1015 WSW (240°) 18.4mph 13°C 4°C
22/05/19 17:50 EGOM 221650Z AUTO 24018KT 9999 NCD 14/03 Q1015 WSW (240°) 20.7mph 14°C 3°C
22/05/19 16:50 EGOM 221550Z AUTO 25015KT 9999 FEW038/// 14/04 Q1015 WSW (250°) 17.3mph 14°C 4°C
22/05/19 15:50 EGOM 221450Z AUTO 26015KT 9999 FEW036/// 15/04 Q1016 W (260°) 17.3mph 15°C 4°C
22/05/19 14:50 EGOM 221350Z 26014KT 9999 SCT038 13/04 Q1016 BLU W (260°) 16.1mph 13°C 4°C
22/05/19 13:50 EGOM 221250Z 26014KT 9999 SCT038 14/04 Q1016 BLU W (260°) 16.1mph 14°C 4°C
22/05/19 12:50 EGOM 221150Z 26015KT 9999 SCT033 12/02 Q1016 BLU W (260°) 17.3mph 12°C 2°C
22/05/19 11:50 EGOM 221050Z 27017KT 9999 FEW030 13/03 Q1016 BLU W (270°) 19.6mph 13°C 3°C
22/05/19 10:50 EGOM 220950Z 27018KT 9999 FEW027 12/03 Q1016 BLU W (270°) 20.7mph 12°C 3°C
22/05/19 09:50 EGOM 220850Z 27013KT 9999 FEW019 10/03 Q1017 BLU W (270°) 15.0mph 10°C 3°C
22/05/19 08:50 EGOM 220750Z 25010KT 9999 FEW012 08/05 Q1017 BLU WSW (250°) 11.5mph 8°C 5°C
22/05/19 07:50 EGOM 220650Z AUTO 25009KT 9999 BKN001/// 06/06 Q1017 WSW (250°) 10.4mph 6°C 6°C
22/05/19 06:50 EGOM 220550Z AUTO 24006KT 9999 BKN001/// 05/05 Q1017 WSW (240°) 6.9mph 5°C 5°C
22/05/19 05:50 EGOM 220450Z AUTO 25009KT 0350 FG FEW001/// 03/03 Q1017 FG WSW (250°) 10.4mph 3°C 3°C
22/05/19 04:50 EGOM 220350Z AUTO 25012KT 9999 NCD 02/02 Q1017 WSW (250°) 13.8mph 2°C 2°C
22/05/19 03:50 EGOM 220250Z AUTO 25009KT 9999 NCD 03/02 Q1017 WSW (250°) 10.4mph 3°C 2°C
22/05/19 02:50 EGOM 220150Z AUTO 25008KT 9999 NCD 03/02 Q1018 WSW (250°) 9.2mph 3°C 2°C
22/05/19 01:50 EGOM 220050Z AUTO 25009KT 9999 NCD 04/02 Q1018 WSW (250°) 10.4mph 4°C 2°C
22/05/19 00:50 EGOM 212350Z AUTO 25008KT 9999 NCD 05/02 Q1018 WSW (250°) 9.2mph 5°C 2°C
21/05/19 23:50 EGOM 212250Z AUTO 29010KT 9999 NCD 06/03 Q1018 WNW (290°) 11.5mph 6°C 3°C
21/05/19 22:50 EGOM 212150Z AUTO 27007KT 9999 NCD 05/02 Q1018 W (270°) 8.1mph 5°C 2°C
21/05/19 21:50 EGOM 212050Z AUTO 28006KT 9999 NCD 07/03 Q1018 W (280°) 6.9mph 7°C 3°C
21/05/19 20:50 EGOM 211950Z AUTO 28012KT 9999 NCD 11/03 Q1018 W (280°) 13.8mph 11°C 3°C
21/05/19 19:50 EGOM 211850Z AUTO 24012KT 9999 FEW044/// 12/06 Q1017 WSW (240°) 13.8mph 12°C 6°C
21/05/19 18:50 EGOM 211750Z AUTO 24014KT 9999 FEW045/// 14/04 Q1017 WSW (240°) 16.1mph 14°C 4°C
21/05/19 17:50 EGOM 211650Z AUTO 24016KT 9999 NCD 14/04 Q1017 WSW (240°) 18.4mph 14°C 4°C
21/05/19 16:50 EGOM 211550Z AUTO 26015KT 9999 NCD 15/05 Q1017 W (260°) 17.3mph 15°C 5°C
21/05/19 15:50 EGOM 211450Z 26014KT 9999 FEW035 15/05 Q1017 BLU W (260°) 16.1mph 15°C 5°C
21/05/19 14:50 EGOM 211350Z 25013KT 9999 SCT040 15/07 Q1017 BLU WSW (250°) 15.0mph 15°C 7°C
21/05/19 13:50 EGOM 211250Z 24011KT 9999 BKN031 15/08 Q1017 BLU WSW (240°) 12.7mph 15°C 8°C